sensor_id;sensor_type;location;lat;lon;timestamp;P1;durP1;ratioP1;P2;durP2;ratioP2
34471;SDS011;20710;49.976;19.836;2023-05-29T00:04:46;16.50;;;7.60;;
34471;SDS011;20710;49.976;19.836;2023-05-29T00:11:07;11.20;;;7.00;;
34471;SDS011;20710;49.976;19.836;2023-05-29T00:17:08;17.20;;;8.10;;
34471;SDS011;20710;49.976;19.836;2023-05-29T00:23:54;12.10;;;7.00;;
34471;SDS011;20710;49.976;19.836;2023-05-29T00:30:35;11.90;;;7.20;;
34471;SDS011;20710;49.976;19.836;2023-05-29T00:36:37;15.60;;;7.30;;
34471;SDS011;20710;49.976;19.836;2023-05-29T00:42:39;11.50;;;7.00;;
34471;SDS011;20710;49.976;19.836;2023-05-29T00:48:44;11.10;;;7.00;;
34471;SDS011;20710;49.976;19.836;2023-05-29T00:54:47;14.70;;;7.90;;
34471;SDS011;20710;49.976;19.836;2023-05-29T01:01:10;11.40;;;6.90;;
34471;SDS011;20710;49.976;19.836;2023-05-29T01:07:12;16.00;;;6.80;;
34471;SDS011;20710;49.976;19.836;2023-05-29T01:13:32;10.00;;;6.50;;
34471;SDS011;20710;49.976;19.836;2023-05-29T01:20:14;13.30;;;6.10;;
34471;SDS011;20710;49.976;19.836;2023-05-29T01:26:41;10.60;;;5.50;;
34471;SDS011;20710;49.976;19.836;2023-05-29T01:33:23;13.30;;;6.90;;
34471;SDS011;20710;49.976;19.836;2023-05-29T01:39:25;14.80;;;6.80;;
34471;SDS011;20710;49.976;19.836;2023-05-29T01:45:27;14.60;;;7.20;;
34471;SDS011;20710;49.976;19.836;2023-05-29T01:51:28;12.00;;;6.50;;
34471;SDS011;20710;49.976;19.836;2023-05-29T01:57:29;12.40;;;6.50;;
34471;SDS011;20710;49.976;19.836;2023-05-29T02:03:30;8.90;;;5.90;;
34471;SDS011;20710;49.976;19.836;2023-05-29T02:09:34;11.70;;;6.40;;
34471;SDS011;20710;49.976;19.836;2023-05-29T02:15:36;11.10;;;6.40;;
34471;SDS011;20710;49.976;19.836;2023-05-29T02:21:40;10.60;;;6.40;;
34471;SDS011;20710;49.976;19.836;2023-05-29T02:27:42;8.70;;;5.10;;
34471;SDS011;20710;49.976;19.836;2023-05-29T02:33:44;11.20;;;6.60;;
34471;SDS011;20710;49.976;19.836;2023-05-29T02:39:45;12.80;;;5.50;;
34471;SDS011;20710;49.976;19.836;2023-05-29T02:45:46;11.80;;;6.40;;
34471;SDS011;20710;49.976;19.836;2023-05-29T02:51:47;10.20;;;6.30;;
34471;SDS011;20710;49.976;19.836;2023-05-29T02:57:48;14.30;;;7.10;;
34471;SDS011;20710;49.976;19.836;2023-05-29T03:04:34;13.90;;;7.70;;
34471;SDS011;20710;49.976;19.836;2023-05-29T03:10:36;13.20;;;6.90;;
34471;SDS011;20710;49.976;19.836;2023-05-29T03:16:37;12.50;;;6.80;;
34471;SDS011;20710;49.976;19.836;2023-05-29T03:29:33;8.40;;;5.50;;
34471;SDS011;20710;49.976;19.836;2023-05-29T03:42:04;11.60;;;6.40;;
34471;SDS011;20710;49.976;19.836;2023-05-29T03:48:09;14.10;;;6.20;;
34471;SDS011;20710;49.976;19.836;2023-05-29T03:54:14;10.10;;;5.70;;
34471;SDS011;20710;49.976;19.836;2023-05-29T04:01:19;9.60;;;5.90;;
34471;SDS011;20710;49.976;19.836;2023-05-29T04:07:21;11.50;;;7.00;;
34471;SDS011;20710;49.976;19.836;2023-05-29T04:13:25;10.00;;;6.30;;
34471;SDS011;20710;49.976;19.836;2023-05-29T04:20:10;15.20;;;7.20;;
34471;SDS011;20710;49.976;19.836;2023-05-29T04:26:14;11.50;;;6.60;;
34471;SDS011;20710;49.976;19.836;2023-05-29T04:33:06;12.10;;;7.00;;
34471;SDS011;20710;49.976;19.836;2023-05-29T04:39:08;13.80;;;6.90;;
34471;SDS011;20710;49.976;19.836;2023-05-29T04:46:13;13.50;;;7.50;;
34471;SDS011;20710;49.976;19.836;2023-05-29T04:52:16;10.90;;;6.00;;
34471;SDS011;20710;49.976;19.836;2023-05-29T04:58:20;13.80;;;6.80;;
34471;SDS011;20710;49.976;19.836;2023-05-29T05:04:23;10.80;;;7.50;;
34471;SDS011;20710;49.976;19.836;2023-05-29T05:10:24;12.50;;;8.50;;
34471;SDS011;20710;49.976;19.836;2023-05-29T05:16:25;18.40;;;10.20;;
34471;SDS011;20710;49.976;19.836;2023-05-29T05:22:29;15.00;;;8.60;;
34471;SDS011;20710;49.976;19.836;2023-05-29T05:28:31;13.00;;;8.00;;
34471;SDS011;20710;49.976;19.836;2023-05-29T05:34:32;17.90;;;8.70;;
34471;SDS011;20710;49.976;19.836;2023-05-29T05:40:33;13.40;;;8.10;;
34471;SDS011;20710;49.976;19.836;2023-05-29T05:46:44;13.70;;;7.40;;
34471;SDS011;20710;49.976;19.836;2023-05-29T05:52:46;15.00;;;7.90;;
34471;SDS011;20710;49.976;19.836;2023-05-29T05:58:47;15.40;;;7.70;;
34471;SDS011;20710;49.976;19.836;2023-05-29T06:04:52;13.80;;;7.50;;
34471;SDS011;20710;49.976;19.836;2023-05-29T06:10:54;12.80;;;6.40;;
34471;SDS011;20710;49.976;19.836;2023-05-29T06:16:55;9.60;;;6.00;;
34471;SDS011;20710;49.976;19.836;2023-05-29T06:22:57;9.10;;;5.60;;
34471;SDS011;20710;49.976;19.836;2023-05-29T06:28:58;12.30;;;5.30;;
34471;SDS011;20710;49.976;19.836;2023-05-29T06:34:58;9.30;;;4.60;;
34471;SDS011;20710;49.976;19.836;2023-05-29T06:41:00;7.60;;;4.60;;
34471;SDS011;20710;49.976;19.836;2023-05-29T06:47:01;7.10;;;4.40;;
34471;SDS011;20710;49.976;19.836;2023-05-29T06:53:02;14.50;;;5.00;;
34471;SDS011;20710;49.976;19.836;2023-05-29T06:59:17;8.90;;;4.90;;
34471;SDS011;20710;49.976;19.836;2023-05-29T07:05:18;8.50;;;5.30;;
34471;SDS011;20710;49.976;19.836;2023-05-29T07:11:19;12.10;;;5.20;;
34471;SDS011;20710;49.976;19.836;2023-05-29T07:17:20;11.20;;;4.60;;
34471;SDS011;20710;49.976;19.836;2023-05-29T07:23:39;9.30;;;4.20;;
34471;SDS011;20710;49.976;19.836;2023-05-29T07:29:41;14.10;;;4.90;;
34471;SDS011;20710;49.976;19.836;2023-05-29T07:35:43;11.10;;;4.30;;
34471;SDS011;20710;49.976;19.836;2023-05-29T07:41:44;9.30;;;5.00;;
34471;SDS011;20710;49.976;19.836;2023-05-29T07:47:46;10.70;;;4.60;;
34471;SDS011;20710;49.976;19.836;2023-05-29T07:53:49;12.00;;;5.30;;
34471;SDS011;20710;49.976;19.836;2023-05-29T07:59:50;9.70;;;5.20;;
34471;SDS011;20710;49.976;19.836;2023-05-29T08:05:51;13.40;;;5.00;;
34471;SDS011;20710;49.976;19.836;2023-05-29T08:11:54;11.30;;;5.00;;
34471;SDS011;20710;49.976;19.836;2023-05-29T08:17:56;14.50;;;5.50;;
34471;SDS011;20710;49.976;19.836;2023-05-29T08:23:57;12.00;;;5.30;;
34471;SDS011;20710;49.976;19.836;2023-05-29T08:29:58;9.70;;;5.00;;
34471;SDS011;20710;49.976;19.836;2023-05-29T08:35:59;10.20;;;4.80;;
34471;SDS011;20710;49.976;19.836;2023-05-29T08:49:45;8.10;;;4.10;;
34471;SDS011;20710;49.976;19.836;2023-05-29T08:55:55;15.00;;;3.90;;
34471;SDS011;20710;49.976;19.836;2023-05-29T09:01:59;10.50;;;4.40;;
34471;SDS011;20710;49.976;19.836;2023-05-29T09:08:00;7.10;;;3.50;;
34471;SDS011;20710;49.976;19.836;2023-05-29T09:15:18;11.40;;;3.20;;
34471;SDS011;20710;49.976;19.836;2023-05-29T09:21:50;9.10;;;3.10;;
34471;SDS011;20710;49.976;19.836;2023-05-29T09:27:52;10.20;;;3.50;;
34471;SDS011;20710;49.976;19.836;2023-05-29T09:34:44;11.10;;;3.80;;
34471;SDS011;20710;49.976;19.836;2023-05-29T09:40:45;9.80;;;3.10;;
34471;SDS011;20710;49.976;19.836;2023-05-29T09:46:48;11.70;;;2.80;;
34471;SDS011;20710;49.976;19.836;2023-05-29T10:00:12;11.10;;;3.20;;
34471;SDS011;20710;49.976;19.836;2023-05-29T10:06:34;7.40;;;3.20;;
34471;SDS011;20710;49.976;19.836;2023-05-29T10:12:44;6.00;;;3.30;;
34471;SDS011;20710;49.976;19.836;2023-05-29T10:18:50;11.10;;;3.10;;
34471;SDS011;20710;49.976;19.836;2023-05-29T10:24:55;9.30;;;3.10;;
34471;SDS011;20710;49.976;19.836;2023-05-29T10:31:30;5.30;;;2.90;;
34471;SDS011;20710;49.976;19.836;2023-05-29T10:50:43;7.40;;;2.80;;
34471;SDS011;20710;49.976;19.836;2023-05-29T11:03:50;4.80;;;2.70;;
34471;SDS011;20710;49.976;19.836;2023-05-29T11:10:01;7.00;;;2.90;;
34471;SDS011;20710;49.976;19.836;2023-05-29T11:17:27;8.90;;;3.30;;
34471;SDS011;20710;49.976;19.836;2023-05-29T11:30:48;4.50;;;3.00;;
34471;SDS011;20710;49.976;19.836;2023-05-29T11:37:40;10.40;;;3.00;;
34471;SDS011;20710;49.976;19.836;2023-05-29T11:43:43;7.20;;;2.70;;
34471;SDS011;20710;49.976;19.836;2023-05-29T11:49:46;7.00;;;2.90;;
34471;SDS011;20710;49.976;19.836;2023-05-29T11:55:47;8.00;;;3.40;;
34471;SDS011;20710;49.976;19.836;2023-05-29T12:01:48;6.70;;;2.80;;
34471;SDS011;20710;49.976;19.836;2023-05-29T12:07:54;6.40;;;2.90;;
34471;SDS011;20710;49.976;19.836;2023-05-29T12:14:41;6.70;;;3.10;;
34471;SDS011;20710;49.976;19.836;2023-05-29T12:20:42;8.90;;;3.40;;
34471;SDS011;20710;49.976;19.836;2023-05-29T12:26:44;6.40;;;3.00;;
34471;SDS011;20710;49.976;19.836;2023-05-29T12:32:45;5.70;;;3.10;;
34471;SDS011;20710;49.976;19.836;2023-05-29T12:39:07;6.40;;;3.70;;
34471;SDS011;20710;49.976;19.836;2023-05-29T12:45:12;11.10;;;3.60;;
34471;SDS011;20710;49.976;19.836;2023-05-29T13:04:11;4.80;;;3.50;;
34471;SDS011;20710;49.976;19.836;2023-05-29T13:10:13;11.20;;;4.90;;
34471;SDS011;20710;49.976;19.836;2023-05-29T13:17:40;6.00;;;3.30;;
34471;SDS011;20710;49.976;19.836;2023-05-29T13:23:41;7.80;;;3.30;;
34471;SDS011;20710;49.976;19.836;2023-05-29T13:36:32;5.90;;;3.00;;
34471;SDS011;20710;49.976;19.836;2023-05-29T13:42:33;8.80;;;3.30;;
34471;SDS011;20710;49.976;19.836;2023-05-29T13:48:34;5.00;;;2.90;;
34471;SDS011;20710;49.976;19.836;2023-05-29T13:54:35;12.10;;;4.20;;
34471;SDS011;20710;49.976;19.836;2023-05-29T14:07:26;5.60;;;3.40;;
34471;SDS011;20710;49.976;19.836;2023-05-29T14:13:27;4.40;;;2.70;;
34471;SDS011;20710;49.976;19.836;2023-05-29T14:20:33;7.50;;;2.80;;
34471;SDS011;20710;49.976;19.836;2023-05-29T14:26:34;11.30;;;2.90;;
34471;SDS011;20710;49.976;19.836;2023-05-29T14:32:35;8.00;;;3.00;;
34471;SDS011;20710;49.976;19.836;2023-05-29T14:38:58;5.30;;;3.10;;
34471;SDS011;20710;49.976;19.836;2023-05-29T14:45:02;5.10;;;2.80;;
34471;SDS011;20710;49.976;19.836;2023-05-29T14:51:04;5.20;;;2.90;;
34471;SDS011;20710;49.976;19.836;2023-05-29T15:04:15;5.70;;;2.80;;
34471;SDS011;20710;49.976;19.836;2023-05-29T15:10:16;6.20;;;3.30;;
34471;SDS011;20710;49.976;19.836;2023-05-29T15:16:20;6.20;;;3.10;;
34471;SDS011;20710;49.976;19.836;2023-05-29T15:22:25;6.30;;;2.80;;
34471;SDS011;20710;49.976;19.836;2023-05-29T15:28:50;7.90;;;2.90;;
34471;SDS011;20710;49.976;19.836;2023-05-29T15:35:14;10.20;;;3.60;;
34471;SDS011;20710;49.976;19.836;2023-05-29T15:42:32;8.40;;;3.10;;
34471;SDS011;20710;49.976;19.836;2023-05-29T15:48:59;4.80;;;3.10;;
34471;SDS011;20710;49.976;19.836;2023-05-29T15:55:01;7.00;;;3.00;;
34471;SDS011;20710;49.976;19.836;2023-05-29T16:01:03;7.50;;;3.20;;
34471;SDS011;20710;49.976;19.836;2023-05-29T16:07:04;6.90;;;3.20;;
34471;SDS011;20710;49.976;19.836;2023-05-29T16:13:06;4.70;;;3.00;;
34471;SDS011;20710;49.976;19.836;2023-05-29T16:19:11;5.40;;;3.80;;
34471;SDS011;20710;49.976;19.836;2023-05-29T16:25:19;4.30;;;3.00;;
34471;SDS011;20710;49.976;19.836;2023-05-29T16:31:32;9.90;;;4.00;;
34471;SDS011;20710;49.976;19.836;2023-05-29T16:37:36;5.70;;;3.60;;
34471;SDS011;20710;49.976;19.836;2023-05-29T16:43:52;8.00;;;3.40;;
34471;SDS011;20710;49.976;19.836;2023-05-29T16:49:54;5.80;;;3.60;;
34471;SDS011;20710;49.976;19.836;2023-05-29T16:55:57;5.20;;;3.60;;
34471;SDS011;20710;49.976;19.836;2023-05-29T17:02:00;6.20;;;4.00;;
34471;SDS011;20710;49.976;19.836;2023-05-29T17:08:09;5.00;;;3.50;;
34471;SDS011;20710;49.976;19.836;2023-05-29T17:14:50;8.90;;;3.60;;
34471;SDS011;20710;49.976;19.836;2023-05-29T17:20:53;8.40;;;4.20;;
34471;SDS011;20710;49.976;19.836;2023-05-29T17:26:54;8.80;;;3.60;;
34471;SDS011;20710;49.976;19.836;2023-05-29T17:39:20;5.50;;;3.70;;
34471;SDS011;20710;49.976;19.836;2023-05-29T17:52:48;7.60;;;4.00;;
34471;SDS011;20710;49.976;19.836;2023-05-29T17:58:50;7.00;;;3.90;;
34471;SDS011;20710;49.976;19.836;2023-05-29T18:04:51;10.00;;;4.80;;
34471;SDS011;20710;49.976;19.836;2023-05-29T18:10:53;6.90;;;4.70;;
34471;SDS011;20710;49.976;19.836;2023-05-29T18:17:00;7.50;;;4.20;;
34471;SDS011;20710;49.976;19.836;2023-05-29T18:23:22;8.90;;;3.90;;
34471;SDS011;20710;49.976;19.836;2023-05-29T18:29:24;7.90;;;3.70;;
34471;SDS011;20710;49.976;19.836;2023-05-29T18:35:26;8.10;;;5.00;;
34471;SDS011;20710;49.976;19.836;2023-05-29T18:41:30;8.00;;;4.30;;
34471;SDS011;20710;49.976;19.836;2023-05-29T18:54:25;8.40;;;4.80;;
34471;SDS011;20710;49.976;19.836;2023-05-29T19:14:40;14.70;;;9.30;;
34471;SDS011;20710;49.976;19.836;2023-05-29T19:20:42;18.80;;;9.00;;
34471;SDS011;20710;49.976;19.836;2023-05-29T19:41:00;13.90;;;7.30;;
34471;SDS011;20710;49.976;19.836;2023-05-29T20:00:50;13.20;;;7.90;;
34471;SDS011;20710;49.976;19.836;2023-05-29T20:06:53;14.30;;;7.90;;
34471;SDS011;20710;49.976;19.836;2023-05-29T20:13:03;14.30;;;7.00;;
34471;SDS011;20710;49.976;19.836;2023-05-29T20:19:37;15.10;;;7.80;;
34471;SDS011;20710;49.976;19.836;2023-05-29T20:26:00;13.70;;;7.60;;
34471;SDS011;20710;49.976;19.836;2023-05-29T20:32:08;15.60;;;7.80;;
34471;SDS011;20710;49.976;19.836;2023-05-29T20:38:09;17.60;;;9.30;;
34471;SDS011;20710;49.976;19.836;2023-05-29T20:44:14;21.30;;;10.70;;
34471;SDS011;20710;49.976;19.836;2023-05-29T20:50:37;26.00;;;12.00;;
34471;SDS011;20710;49.976;19.836;2023-05-29T20:57:03;25.90;;;13.10;;
34471;SDS011;20710;49.976;19.836;2023-05-29T21:03:04;24.70;;;12.40;;
34471;SDS011;20710;49.976;19.836;2023-05-29T21:09:05;24.80;;;13.50;;
34471;SDS011;20710;49.976;19.836;2023-05-29T21:21:33;24.70;;;9.70;;
34471;SDS011;20710;49.976;19.836;2023-05-29T21:27:38;38.20;;;16.40;;
34471;SDS011;20710;49.976;19.836;2023-05-29T21:33:41;27.00;;;14.10;;
34471;SDS011;20710;49.976;19.836;2023-05-29T21:39:43;23.50;;;13.20;;
34471;SDS011;20710;49.976;19.836;2023-05-29T21:45:45;31.70;;;14.10;;
34471;SDS011;20710;49.976;19.836;2023-05-29T21:51:46;26.10;;;13.90;;
34471;SDS011;20710;49.976;19.836;2023-05-29T21:57:55;24.60;;;12.80;;
34471;SDS011;20710;49.976;19.836;2023-05-29T22:03:56;25.10;;;12.60;;
34471;SDS011;20710;49.976;19.836;2023-05-29T22:09:57;25.20;;;12.60;;
34471;SDS011;20710;49.976;19.836;2023-05-29T22:15:58;29.20;;;14.00;;
34471;SDS011;20710;49.976;19.836;2023-05-29T22:22:23;31.10;;;14.70;;
34471;SDS011;20710;49.976;19.836;2023-05-29T22:28:37;24.30;;;12.40;;
34471;SDS011;20710;49.976;19.836;2023-05-29T22:43:30;19.60;;;10.80;;
34471;SDS011;20710;49.976;19.836;2023-05-29T23:10:56;18.90;;;11.30;;
34471;SDS011;20710;49.976;19.836;2023-05-29T23:17:33;22.30;;;11.20;;
34471;SDS011;20710;49.976;19.836;2023-05-29T23:23:34;22.20;;;10.70;;
